sensor_id;sensor_type;location;lat;lon;timestamp;temperature;humidity
59025;DHT22;44806;48.008;13.666;2023-02-28T00:01:26;0.30;99.40
59025;DHT22;44806;48.008;13.666;2023-02-28T00:04:08;0.30;99.40
59025;DHT22;44806;48.008;13.666;2023-02-28T00:06:40;0.30;99.70
59025;DHT22;44806;48.008;13.666;2023-02-28T00:09:12;0.30;99.60
59025;DHT22;44806;48.008;13.666;2023-02-28T00:11:40;0.30;99.60
59025;DHT22;44806;48.008;13.666;2023-02-28T00:14:17;0.30;99.60
59025;DHT22;44806;48.008;13.666;2023-02-28T00:16:48;0.30;99.60
59025;DHT22;44806;48.008;13.666;2023-02-28T00:19:20;0.30;99.90
59025;DHT22;44806;48.008;13.666;2023-02-28T00:21:56;0.20;99.90
59025;DHT22;44806;48.008;13.666;2023-02-28T00:24:31;0.20;99.90
59025;DHT22;44806;48.008;13.666;2023-02-28T00:27:04;0.10;99.90
59025;DHT22;44806;48.008;13.666;2023-02-28T00:29:36;0.10;99.90
59025;DHT22;44806;48.008;13.666;2023-02-28T00:32:08;0.10;99.90
59025;DHT22;44806;48.008;13.666;2023-02-28T00:34:45;0.10;99.90
59025;DHT22;44806;48.008;13.666;2023-02-28T00:37:19;0.10;99.90
59025;DHT22;44806;48.008;13.666;2023-02-28T00:39:52;0.00;99.90
59025;DHT22;44806;48.008;13.666;2023-02-28T00:42:22;0.10;99.90
59025;DHT22;44806;48.008;13.666;2023-02-28T00:44:54;0.10;99.90
59025;DHT22;44806;48.008;13.666;2023-02-28T00:47:25;0.00;99.90
59025;DHT22;44806;48.008;13.666;2023-02-28T00:49:57;0.00;99.90
59025;DHT22;44806;48.008;13.666;2023-02-28T00:52:28;0.10;99.90
59025;DHT22;44806;48.008;13.666;2023-02-28T00:54:58;0.00;99.90
59025;DHT22;44806;48.008;13.666;2023-02-28T00:57:31;-0.10;99.90
59025;DHT22;44806;48.008;13.666;2023-02-28T01:00:02;-0.10;99.90
59025;DHT22;44806;48.008;13.666;2023-02-28T01:02:31;-0.10;99.90
59025;DHT22;44806;48.008;13.666;2023-02-28T01:05:09;-0.10;99.90
59025;DHT22;44806;48.008;13.666;2023-02-28T01:07:40;-0.10;99.90
59025;DHT22;44806;48.008;13.666;2023-02-28T01:10:11;-0.10;99.90
59025;DHT22;44806;48.008;13.666;2023-02-28T01:12:48;-0.10;99.90
59025;DHT22;44806;48.008;13.666;2023-02-28T01:15:19;-0.10;99.90
59025;DHT22;44806;48.008;13.666;2023-02-28T01:18:00;-0.10;99.90
59025;DHT22;44806;48.008;13.666;2023-02-28T01:20:33;-0.10;99.90
59025;DHT22;44806;48.008;13.666;2023-02-28T01:23:03;-0.20;99.90
59025;DHT22;44806;48.008;13.666;2023-02-28T01:25:37;-0.20;99.90
59025;DHT22;44806;48.008;13.666;2023-02-28T01:28:08;-0.20;99.90
59025;DHT22;44806;48.008;13.666;2023-02-28T01:30:39;-0.20;99.90
59025;DHT22;44806;48.008;13.666;2023-02-28T01:33:09;-0.20;99.90
59025;DHT22;44806;48.008;13.666;2023-02-28T01:35:44;-0.20;99.90
59025;DHT22;44806;48.008;13.666;2023-02-28T01:38:21;-0.20;99.90
59025;DHT22;44806;48.008;13.666;2023-02-28T01:40:59;-0.20;99.90
59025;DHT22;44806;48.008;13.666;2023-02-28T01:46:19;-0.30;99.90
59025;DHT22;44806;48.008;13.666;2023-02-28T01:48:53;-0.30;99.90
59025;DHT22;44806;48.008;13.666;2023-02-28T01:51:26;-0.30;99.90
59025;DHT22;44806;48.008;13.666;2023-02-28T01:54:01;-0.30;99.90
59025;DHT22;44806;48.008;13.666;2023-02-28T01:56:34;-0.30;99.90
59025;DHT22;44806;48.008;13.666;2023-02-28T01:59:03;-0.30;99.90
59025;DHT22;44806;48.008;13.666;2023-02-28T02:01:33;-0.20;99.90
59025;DHT22;44806;48.008;13.666;2023-02-28T02:04:11;-0.20;99.90
59025;DHT22;44806;48.008;13.666;2023-02-28T02:06:46;-0.30;99.90
59025;DHT22;44806;48.008;13.666;2023-02-28T02:09:18;-0.30;99.90
59025;DHT22;44806;48.008;13.666;2023-02-28T02:11:52;-0.30;99.90
59025;DHT22;44806;48.008;13.666;2023-02-28T02:14:45;-0.30;99.90
59025;DHT22;44806;48.008;13.666;2023-02-28T02:17:28;-0.40;99.90
59025;DHT22;44806;48.008;13.666;2023-02-28T02:20:39;-0.40;99.90
59025;DHT22;44806;48.008;13.666;2023-02-28T02:23:41;-0.40;99.90
59025;DHT22;44806;48.008;13.666;2023-02-28T02:32:49;-0.40;99.90
59025;DHT22;44806;48.008;13.666;2023-02-28T02:35:43;-0.40;99.90
59025;DHT22;44806;48.008;13.666;2023-02-28T02:38:32;-0.40;99.90
59025;DHT22;44806;48.008;13.666;2023-02-28T02:41:08;-0.50;99.90
59025;DHT22;44806;48.008;13.666;2023-02-28T02:43:44;-0.50;99.90
59025;DHT22;44806;48.008;13.666;2023-02-28T02:46:25;-0.50;99.90
59025;DHT22;44806;48.008;13.666;2023-02-28T02:49:08;-0.50;99.90
59025;DHT22;44806;48.008;13.666;2023-02-28T02:51:47;-0.60;99.90
59025;DHT22;44806;48.008;13.666;2023-02-28T02:54:22;-0.50;99.90
59025;DHT22;44806;48.008;13.666;2023-02-28T02:56:57;-0.50;99.90
59025;DHT22;44806;48.008;13.666;2023-02-28T02:59:36;-0.50;99.90
59025;DHT22;44806;48.008;13.666;2023-02-28T03:02:17;-0.50;99.90
59025;DHT22;44806;48.008;13.666;2023-02-28T03:04:56;-0.50;99.90
59025;DHT22;44806;48.008;13.666;2023-02-28T03:07:31;-0.50;99.90
59025;DHT22;44806;48.008;13.666;2023-02-28T03:10:25;-0.50;99.90
59025;DHT22;44806;48.008;13.666;2023-02-28T03:15:58;-0.60;99.90
59025;DHT22;44806;48.008;13.666;2023-02-28T03:18:36;-0.60;99.90
59025;DHT22;44806;48.008;13.666;2023-02-28T03:21:20;-0.60;99.90
59025;DHT22;44806;48.008;13.666;2023-02-28T03:24:03;-0.60;99.90
59025;DHT22;44806;48.008;13.666;2023-02-28T03:26:34;-0.50;99.90
59025;DHT22;44806;48.008;13.666;2023-02-28T03:29:18;-0.60;99.90
59025;DHT22;44806;48.008;13.666;2023-02-28T03:31:59;-0.60;99.90
59025;DHT22;44806;48.008;13.666;2023-02-28T03:34:37;-0.60;99.90
59025;DHT22;44806;48.008;13.666;2023-02-28T03:37:16;-0.60;99.90
59025;DHT22;44806;48.008;13.666;2023-02-28T03:39:58;-0.60;99.90
59025;DHT22;44806;48.008;13.666;2023-02-28T03:42:28;-0.60;99.90
59025;DHT22;44806;48.008;13.666;2023-02-28T03:45:11;-0.50;99.90
59025;DHT22;44806;48.008;13.666;2023-02-28T03:47:54;-0.60;99.90
59025;DHT22;44806;48.008;13.666;2023-02-28T03:50:27;-0.60;99.90
59025;DHT22;44806;48.008;13.666;2023-02-28T03:53:05;-0.60;99.90
59025;DHT22;44806;48.008;13.666;2023-02-28T03:55:40;-0.70;99.90
59025;DHT22;44806;48.008;13.666;2023-02-28T03:58:16;-0.70;99.90
59025;DHT22;44806;48.008;13.666;2023-02-28T04:00:52;-0.60;99.90
59025;DHT22;44806;48.008;13.666;2023-02-28T04:03:24;-0.60;99.90
59025;DHT22;44806;48.008;13.666;2023-02-28T04:06:08;-0.60;99.90
59025;DHT22;44806;48.008;13.666;2023-02-28T04:08:47;-0.60;99.90
59025;DHT22;44806;48.008;13.666;2023-02-28T04:11:27;-0.60;99.90
59025;DHT22;44806;48.008;13.666;2023-02-28T04:14:06;-0.60;99.90
59025;DHT22;44806;48.008;13.666;2023-02-28T04:16:36;-0.60;99.90
59025;DHT22;44806;48.008;13.666;2023-02-28T04:19:10;-0.50;99.90
59025;DHT22;44806;48.008;13.666;2023-02-28T04:21:40;-0.50;99.90
59025;DHT22;44806;48.008;13.666;2023-02-28T04:24:10;-0.40;99.90
59025;DHT22;44806;48.008;13.666;2023-02-28T04:26:52;-0.50;99.90
59025;DHT22;44806;48.008;13.666;2023-02-28T04:29:24;-0.50;99.90
59025;DHT22;44806;48.008;13.666;2023-02-28T04:31:56;-0.40;99.90
59025;DHT22;44806;48.008;13.666;2023-02-28T04:34:26;-0.40;99.90
59025;DHT22;44806;48.008;13.666;2023-02-28T04:36:57;-0.40;99.90
59025;DHT22;44806;48.008;13.666;2023-02-28T04:39:26;-0.40;99.90
59025;DHT22;44806;48.008;13.666;2023-02-28T04:41:58;-0.50;99.90
59025;DHT22;44806;48.008;13.666;2023-02-28T04:44:36;-0.50;99.90
59025;DHT22;44806;48.008;13.666;2023-02-28T04:47:16;-0.50;99.90
59025;DHT22;44806;48.008;13.666;2023-02-28T04:49:50;-0.50;99.90
59025;DHT22;44806;48.008;13.666;2023-02-28T04:52:20;-0.50;99.90
59025;DHT22;44806;48.008;13.666;2023-02-28T04:54:54;-0.50;99.90
59025;DHT22;44806;48.008;13.666;2023-02-28T04:57:24;-0.50;99.90
59025;DHT22;44806;48.008;13.666;2023-02-28T04:59:59;-0.50;99.90
59025;DHT22;44806;48.008;13.666;2023-02-28T05:02:35;-0.50;99.90
59025;DHT22;44806;48.008;13.666;2023-02-28T05:05:03;-0.50;99.90
59025;DHT22;44806;48.008;13.666;2023-02-28T05:07:45;-0.50;99.90
59025;DHT22;44806;48.008;13.666;2023-02-28T05:10:14;-0.50;99.90
59025;DHT22;44806;48.008;13.666;2023-02-28T05:12:49;-0.60;99.90
59025;DHT22;44806;48.008;13.666;2023-02-28T05:15:24;-0.50;99.90
59025;DHT22;44806;48.008;13.666;2023-02-28T05:18:00;-0.60;99.90
59025;DHT22;44806;48.008;13.666;2023-02-28T05:20:30;-0.60;99.90
59025;DHT22;44806;48.008;13.666;2023-02-28T05:22:59;-0.60;99.90
59025;DHT22;44806;48.008;13.666;2023-02-28T05:25:30;-0.60;99.90
59025;DHT22;44806;48.008;13.666;2023-02-28T05:28:05;-0.50;99.90
59025;DHT22;44806;48.008;13.666;2023-02-28T05:30:34;-0.50;99.90
59025;DHT22;44806;48.008;13.666;2023-02-28T05:33:03;-0.50;99.90
59025;DHT22;44806;48.008;13.666;2023-02-28T05:35:34;-0.50;99.90
59025;DHT22;44806;48.008;13.666;2023-02-28T05:38:13;-0.50;99.90
59025;DHT22;44806;48.008;13.666;2023-02-28T05:40:43;-0.50;99.90
59025;DHT22;44806;48.008;13.666;2023-02-28T05:43:20;-0.50;99.90
59025;DHT22;44806;48.008;13.666;2023-02-28T05:45:55;-0.50;99.90
59025;DHT22;44806;48.008;13.666;2023-02-28T05:48:30;-0.50;99.90
59025;DHT22;44806;48.008;13.666;2023-02-28T05:50:58;-0.50;99.90
59025;DHT22;44806;48.008;13.666;2023-02-28T05:53:26;-0.50;99.90
59025;DHT22;44806;48.008;13.666;2023-02-28T05:55:57;-0.50;99.90
59025;DHT22;44806;48.008;13.666;2023-02-28T05:58:30;-0.50;99.90
59025;DHT22;44806;48.008;13.666;2023-02-28T06:01:20;-0.40;99.90
59025;DHT22;44806;48.008;13.666;2023-02-28T06:03:56;-0.40;99.90
59025;DHT22;44806;48.008;13.666;2023-02-28T06:06:36;-0.40;99.90
59025;DHT22;44806;48.008;13.666;2023-02-28T06:09:05;-0.30;99.90
59025;DHT22;44806;48.008;13.666;2023-02-28T06:11:41;-0.40;99.90
59025;DHT22;44806;48.008;13.666;2023-02-28T06:14:15;-0.40;99.90
59025;DHT22;44806;48.008;13.666;2023-02-28T06:16:50;-0.30;99.90
59025;DHT22;44806;48.008;13.666;2023-02-28T06:19:25;-0.40;99.90
59025;DHT22;44806;48.008;13.666;2023-02-28T06:21:56;-0.40;99.90
59025;DHT22;44806;48.008;13.666;2023-02-28T06:24:30;-0.40;99.90
59025;DHT22;44806;48.008;13.666;2023-02-28T06:27:06;-0.50;99.90
59025;DHT22;44806;48.008;13.666;2023-02-28T06:29:35;-0.50;99.90
59025;DHT22;44806;48.008;13.666;2023-02-28T06:32:09;-0.50;99.90
59025;DHT22;44806;48.008;13.666;2023-02-28T06:34:40;-0.50;99.90
59025;DHT22;44806;48.008;13.666;2023-02-28T06:37:21;-0.50;99.90
59025;DHT22;44806;48.008;13.666;2023-02-28T06:40:03;-0.40;99.90
59025;DHT22;44806;48.008;13.666;2023-02-28T06:42:36;-0.30;99.90
59025;DHT22;44806;48.008;13.666;2023-02-28T06:45:13;-0.40;99.90
59025;DHT22;44806;48.008;13.666;2023-02-28T06:47:56;-0.30;99.90
59025;DHT22;44806;48.008;13.666;2023-02-28T06:50:29;-0.20;99.90
59025;DHT22;44806;48.008;13.666;2023-02-28T06:53:00;-0.20;99.90
59025;DHT22;44806;48.008;13.666;2023-02-28T06:55:32;-0.20;99.90
59025;DHT22;44806;48.008;13.666;2023-02-28T06:57:59;-0.30;99.90
59025;DHT22;44806;48.008;13.666;2023-02-28T07:00:29;-0.30;99.90
59025;DHT22;44806;48.008;13.666;2023-02-28T07:03:00;-0.20;99.90
59025;DHT22;44806;48.008;13.666;2023-02-28T07:05:31;-0.30;99.90
59025;DHT22;44806;48.008;13.666;2023-02-28T07:08:00;-0.20;99.90
59025;DHT22;44806;48.008;13.666;2023-02-28T07:10:36;-0.20;99.90
59025;DHT22;44806;48.008;13.666;2023-02-28T07:13:09;-0.10;99.90
59025;DHT22;44806;48.008;13.666;2023-02-28T07:15:39;-0.10;99.90
59025;DHT22;44806;48.008;13.666;2023-02-28T07:18:09;0.00;99.90
59025;DHT22;44806;48.008;13.666;2023-02-28T07:20:37;-0.10;99.90
59025;DHT22;44806;48.008;13.666;2023-02-28T07:23:07;0.00;99.90
59025;DHT22;44806;48.008;13.666;2023-02-28T07:25:41;0.00;99.90
59025;DHT22;44806;48.008;13.666;2023-02-28T07:28:13;0.00;99.90
59025;DHT22;44806;48.008;13.666;2023-02-28T07:30:46;0.00;99.90
59025;DHT22;44806;48.008;13.666;2023-02-28T07:33:14;0.10;99.90
59025;DHT22;44806;48.008;13.666;2023-02-28T07:35:56;0.00;99.90
59025;DHT22;44806;48.008;13.666;2023-02-28T07:38:30;0.00;99.90
59025;DHT22;44806;48.008;13.666;2023-02-28T07:41:07;0.10;99.90
59025;DHT22;44806;48.008;13.666;2023-02-28T07:43:40;0.10;99.90
59025;DHT22;44806;48.008;13.666;2023-02-28T07:46:16;0.00;99.90
59025;DHT22;44806;48.008;13.666;2023-02-28T07:48:49;0.10;99.90
59025;DHT22;44806;48.008;13.666;2023-02-28T07:51:18;0.10;99.90
59025;DHT22;44806;48.008;13.666;2023-02-28T07:53:54;0.10;99.90
59025;DHT22;44806;48.008;13.666;2023-02-28T07:56:24;0.10;99.90
59025;DHT22;44806;48.008;13.666;2023-02-28T07:58:57;0.30;99.90
59025;DHT22;44806;48.008;13.666;2023-02-28T08:01:29;0.40;99.90
59025;DHT22;44806;48.008;13.666;2023-02-28T08:04:00;0.50;99.90
59025;DHT22;44806;48.008;13.666;2023-02-28T08:06:31;0.50;99.90
59025;DHT22;44806;48.008;13.666;2023-02-28T08:09:01;0.70;99.90
59025;DHT22;44806;48.008;13.666;2023-02-28T08:11:38;0.60;99.90
59025;DHT22;44806;48.008;13.666;2023-02-28T08:14:08;0.70;99.90
59025;DHT22;44806;48.008;13.666;2023-02-28T08:16:44;0.70;99.90
59025;DHT22;44806;48.008;13.666;2023-02-28T08:19:15;0.70;99.90
59025;DHT22;44806;48.008;13.666;2023-02-28T08:21:44;0.90;99.90
59025;DHT22;44806;48.008;13.666;2023-02-28T08:24:23;0.90;99.90
59025;DHT22;44806;48.008;13.666;2023-02-28T08:26:51;0.90;99.90
59025;DHT22;44806;48.008;13.666;2023-02-28T08:29:22;0.80;99.90
59025;DHT22;44806;48.008;13.666;2023-02-28T08:31:51;0.70;99.90
59025;DHT22;44806;48.008;13.666;2023-02-28T08:34:29;0.60;99.90
59025;DHT22;44806;48.008;13.666;2023-02-28T08:37:06;0.70;99.90
59025;DHT22;44806;48.008;13.666;2023-02-28T08:39:42;0.80;99.90
59025;DHT22;44806;48.008;13.666;2023-02-28T08:42:13;0.80;99.90
59025;DHT22;44806;48.008;13.666;2023-02-28T08:44:44;0.80;99.90
59025;DHT22;44806;48.008;13.666;2023-02-28T08:47:16;0.70;99.90
59025;DHT22;44806;48.008;13.666;2023-02-28T08:49:47;0.70;99.90
59025;DHT22;44806;48.008;13.666;2023-02-28T08:52:25;0.50;99.90
59025;DHT22;44806;48.008;13.666;2023-02-28T08:54:59;0.60;99.90
59025;DHT22;44806;48.008;13.666;2023-02-28T08:57:31;0.60;99.90
59025;DHT22;44806;48.008;13.666;2023-02-28T09:00:02;0.70;99.90
59025;DHT22;44806;48.008;13.666;2023-02-28T09:02:32;0.90;99.90
59025;DHT22;44806;48.008;13.666;2023-02-28T09:05:09;0.90;99.90
59025;DHT22;44806;48.008;13.666;2023-02-28T09:07:47;1.00;99.90
59025;DHT22;44806;48.008;13.666;2023-02-28T09:10:22;1.10;99.90
59025;DHT22;44806;48.008;13.666;2023-02-28T09:12:56;1.20;99.90
59025;DHT22;44806;48.008;13.666;2023-02-28T09:15:29;1.40;99.90
59025;DHT22;44806;48.008;13.666;2023-02-28T09:18:07;1.40;99.90
59025;DHT22;44806;48.008;13.666;2023-02-28T09:20:38;1.40;99.90
59025;DHT22;44806;48.008;13.666;2023-02-28T09:23:10;1.50;99.90
59025;DHT22;44806;48.008;13.666;2023-02-28T09:25:48;1.60;99.90
59025;DHT22;44806;48.008;13.666;2023-02-28T09:28:23;1.70;99.90
59025;DHT22;44806;48.008;13.666;2023-02-28T09:30:59;1.70;99.90
59025;DHT22;44806;48.008;13.666;2023-02-28T09:33:28;1.70;99.90
59025;DHT22;44806;48.008;13.666;2023-02-28T09:36:02;1.70;99.90
59025;DHT22;44806;48.008;13.666;2023-02-28T09:38:38;1.60;99.80
59025;DHT22;44806;48.008;13.666;2023-02-28T09:41:14;1.60;99.90
59025;DHT22;44806;48.008;13.666;2023-02-28T09:43:55;1.60;99.90
59025;DHT22;44806;48.008;13.666;2023-02-28T09:46:33;1.60;99.90
59025;DHT22;44806;48.008;13.666;2023-02-28T09:49:16;1.60;99.90
59025;DHT22;44806;48.008;13.666;2023-02-28T09:51:52;1.60;99.80
59025;DHT22;44806;48.008;13.666;2023-02-28T09:54:32;1.50;99.90
59025;DHT22;44806;48.008;13.666;2023-02-28T09:57:17;1.60;99.90
59025;DHT22;44806;48.008;13.666;2023-02-28T10:00:03;1.80;99.90
59025;DHT22;44806;48.008;13.666;2023-02-28T10:02:57;1.80;99.90
59025;DHT22;44806;48.008;13.666;2023-02-28T10:05:39;1.90;99.20
59025;DHT22;44806;48.008;13.666;2023-02-28T10:08:15;1.80;99.00
59025;DHT22;44806;48.008;13.666;2023-02-28T10:10:50;1.90;99.60
59025;DHT22;44806;48.008;13.666;2023-02-28T10:13:39;1.90;99.90
59025;DHT22;44806;48.008;13.666;2023-02-28T10:16:24;2.10;99.60
59025;DHT22;44806;48.008;13.666;2023-02-28T10:19:02;2.20;99.90
59025;DHT22;44806;48.008;13.666;2023-02-28T10:21:41;2.30;99.90
59025;DHT22;44806;48.008;13.666;2023-02-28T10:24:28;2.40;99.90
59025;DHT22;44806;48.008;13.666;2023-02-28T10:27:06;2.50;99.60
59025;DHT22;44806;48.008;13.666;2023-02-28T10:29:42;2.60;99.50
59025;DHT22;44806;48.008;13.666;2023-02-28T10:32:18;2.70;99.30
59025;DHT22;44806;48.008;13.666;2023-02-28T10:34:57;2.90;99.10
59025;DHT22;44806;48.008;13.666;2023-02-28T10:37:38;3.00;98.70
59025;DHT22;44806;48.008;13.666;2023-02-28T10:40:08;3.10;98.20
59025;DHT22;44806;48.008;13.666;2023-02-28T10:42:56;3.30;97.70
59025;DHT22;44806;48.008;13.666;2023-02-28T10:45:27;3.30;97.30
59025;DHT22;44806;48.008;13.666;2023-02-28T10:48:02;3.30;97.30
59025;DHT22;44806;48.008;13.666;2023-02-28T10:50:43;3.40;96.90
59025;DHT22;44806;48.008;13.666;2023-02-28T10:53:37;3.60;97.60
59025;DHT22;44806;48.008;13.666;2023-02-28T10:56:18;3.60;96.80
59025;DHT22;44806;48.008;13.666;2023-02-28T10:58:56;3.70;97.30
59025;DHT22;44806;48.008;13.666;2023-02-28T11:01:40;3.80;96.60
59025;DHT22;44806;48.008;13.666;2023-02-28T11:04:18;3.90;96.50
59025;DHT22;44806;48.008;13.666;2023-02-28T11:06:57;4.00;95.70
59025;DHT22;44806;48.008;13.666;2023-02-28T11:09:33;4.10;96.00
59025;DHT22;44806;48.008;13.666;2023-02-28T11:12:06;4.10;96.50
59025;DHT22;44806;48.008;13.666;2023-02-28T11:14:46;4.20;96.00
59025;DHT22;44806;48.008;13.666;2023-02-28T11:17:24;4.20;95.50
59025;DHT22;44806;48.008;13.666;2023-02-28T11:19:57;4.30;94.90
59025;DHT22;44806;48.008;13.666;2023-02-28T11:22:28;4.40;94.40
59025;DHT22;44806;48.008;13.666;2023-02-28T11:25:00;4.50;94.90
59025;DHT22;44806;48.008;13.666;2023-02-28T11:27:47;4.40;94.70
59025;DHT22;44806;48.008;13.666;2023-02-28T11:30:35;4.50;95.20
59025;DHT22;44806;48.008;13.666;2023-02-28T11:33:30;4.60;94.60
59025;DHT22;44806;48.008;13.666;2023-02-28T11:36:14;4.60;94.30
59025;DHT22;44806;48.008;13.666;2023-02-28T11:38:46;4.60;93.50
59025;DHT22;44806;48.008;13.666;2023-02-28T11:41:48;4.60;94.50
59025;DHT22;44806;48.008;13.666;2023-02-28T11:44:31;4.70;94.50
59025;DHT22;44806;48.008;13.666;2023-02-28T11:47:17;4.80;94.80
59025;DHT22;44806;48.008;13.666;2023-02-28T11:50:07;4.90;94.00
59025;DHT22;44806;48.008;13.666;2023-02-28T11:52:50;5.00;94.90
59025;DHT22;44806;48.008;13.666;2023-02-28T11:55:30;5.00;93.60
59025;DHT22;44806;48.008;13.666;2023-02-28T11:58:17;5.00;93.10
59025;DHT22;44806;48.008;13.666;2023-02-28T12:01:07;5.10;94.90
59025;DHT22;44806;48.008;13.666;2023-02-28T12:03:48;5.20;92.80
59025;DHT22;44806;48.008;13.666;2023-02-28T12:06:28;5.20;93.20
59025;DHT22;44806;48.008;13.666;2023-02-28T12:09:27;5.10;93.00
59025;DHT22;44806;48.008;13.666;2023-02-28T12:12:07;5.10;93.10
59025;DHT22;44806;48.008;13.666;2023-02-28T12:15:24;5.20;92.90
59025;DHT22;44806;48.008;13.666;2023-02-28T12:18:10;5.30;92.70
59025;DHT22;44806;48.008;13.666;2023-02-28T12:20:44;5.40;93.50
59025;DHT22;44806;48.008;13.666;2023-02-28T12:23:35;5.40;92.80
59025;DHT22;44806;48.008;13.666;2023-02-28T12:26:19;5.40;92.50
59025;DHT22;44806;48.008;13.666;2023-02-28T12:29:12;5.40;92.60
59025;DHT22;44806;48.008;13.666;2023-02-28T12:31:58;5.40;92.40
59025;DHT22;44806;48.008;13.666;2023-02-28T12:34:36;5.40;92.90
59025;DHT22;44806;48.008;13.666;2023-02-28T12:37:20;5.50;92.80
59025;DHT22;44806;48.008;13.666;2023-02-28T12:40:00;5.50;91.60
59025;DHT22;44806;48.008;13.666;2023-02-28T12:42:38;5.30;92.00
59025;DHT22;44806;48.008;13.666;2023-02-28T12:45:15;5.40;92.80
59025;DHT22;44806;48.008;13.666;2023-02-28T12:47:55;5.30;91.40
59025;DHT22;44806;48.008;13.666;2023-02-28T12:50:29;5.30;92.50
59025;DHT22;44806;48.008;13.666;2023-02-28T12:53:03;5.30;92.70
59025;DHT22;44806;48.008;13.666;2023-02-28T12:55:54;5.30;92.60
59025;DHT22;44806;48.008;13.666;2023-02-28T12:58:33;5.30;93.50
59025;DHT22;44806;48.008;13.666;2023-02-28T13:01:29;5.40;92.00
59025;DHT22;44806;48.008;13.666;2023-02-28T13:10:51;5.30;91.50
59025;DHT22;44806;48.008;13.666;2023-02-28T13:13:29;5.40;92.60
59025;DHT22;44806;48.008;13.666;2023-02-28T13:16:04;5.50;92.70
59025;DHT22;44806;48.008;13.666;2023-02-28T13:18:38;5.50;92.20
59025;DHT22;44806;48.008;13.666;2023-02-28T13:21:27;5.50;93.00
59025;DHT22;44806;48.008;13.666;2023-02-28T13:24:02;5.50;90.90
59025;DHT22;44806;48.008;13.666;2023-02-28T13:29:36;5.60;92.20
59025;DHT22;44806;48.008;13.666;2023-02-28T13:32:30;5.50;91.70
59025;DHT22;44806;48.008;13.666;2023-02-28T13:38:36;5.30;92.00
59025;DHT22;44806;48.008;13.666;2023-02-28T13:41:44;5.40;92.40
59025;DHT22;44806;48.008;13.666;2023-02-28T13:44:13;5.30;91.50
59025;DHT22;44806;48.008;13.666;2023-02-28T13:47:30;5.20;91.40
59025;DHT22;44806;48.008;13.666;2023-02-28T13:56:30;5.20;92.80
59025;DHT22;44806;48.008;13.666;2023-02-28T13:59:20;5.20;93.40
59025;DHT22;44806;48.008;13.666;2023-02-28T14:02:22;5.40;92.70
59025;DHT22;44806;48.008;13.666;2023-02-28T14:05:02;5.50;92.80
59025;DHT22;44806;48.008;13.666;2023-02-28T14:07:44;5.60;92.00
59025;DHT22;44806;48.008;13.666;2023-02-28T14:10:24;5.60;92.80
59025;DHT22;44806;48.008;13.666;2023-02-28T14:13:02;5.70;92.20
59025;DHT22;44806;48.008;13.666;2023-02-28T14:15:56;5.70;92.10
59025;DHT22;44806;48.008;13.666;2023-02-28T14:18:35;5.80;91.70
59025;DHT22;44806;48.008;13.666;2023-02-28T14:21:15;5.80;91.90
59025;DHT22;44806;48.008;13.666;2023-02-28T14:27:17;5.70;91.80
59025;DHT22;44806;48.008;13.666;2023-02-28T14:30:29;5.70;91.80
59025;DHT22;44806;48.008;13.666;2023-02-28T14:33:26;5.70;92.50
59025;DHT22;44806;48.008;13.666;2023-02-28T14:36:07;5.80;92.40
59025;DHT22;44806;48.008;13.666;2023-02-28T14:38:47;5.80;92.40
59025;DHT22;44806;48.008;13.666;2023-02-28T14:41:30;5.70;92.40
59025;DHT22;44806;48.008;13.666;2023-02-28T14:44:12;5.70;92.60
59025;DHT22;44806;48.008;13.666;2023-02-28T14:46:49;5.70;92.90
59025;DHT22;44806;48.008;13.666;2023-02-28T14:49:26;5.70;93.30
59025;DHT22;44806;48.008;13.666;2023-02-28T14:52:05;5.70;93.40
59025;DHT22;44806;48.008;13.666;2023-02-28T14:54:42;5.70;93.20
59025;DHT22;44806;48.008;13.666;2023-02-28T14:57:26;5.70;93.00
59025;DHT22;44806;48.008;13.666;2023-02-28T15:00:03;5.70;92.90
59025;DHT22;44806;48.008;13.666;2023-02-28T15:02:39;5.70;92.90
59025;DHT22;44806;48.008;13.666;2023-02-28T15:05:24;5.60;92.90
59025;DHT22;44806;48.008;13.666;2023-02-28T15:08:10;5.60;92.90
59025;DHT22;44806;48.008;13.666;2023-02-28T15:10:50;5.60;93.00
59025;DHT22;44806;48.008;13.666;2023-02-28T15:13:30;5.60;93.80
59025;DHT22;44806;48.008;13.666;2023-02-28T15:16:16;5.60;92.70
59025;DHT22;44806;48.008;13.666;2023-02-28T15:18:52;5.50;92.50
59025;DHT22;44806;48.008;13.666;2023-02-28T15:21:30;5.50;93.00
59025;DHT22;44806;48.008;13.666;2023-02-28T15:24:05;5.50;93.10
59025;DHT22;44806;48.008;13.666;2023-02-28T15:26:44;5.50;93.00
59025;DHT22;44806;48.008;13.666;2023-02-28T15:29:23;5.50;93.20
59025;DHT22;44806;48.008;13.666;2023-02-28T15:32:01;5.40;92.70
59025;DHT22;44806;48.008;13.666;2023-02-28T15:34:40;5.50;93.40
59025;DHT22;44806;48.008;13.666;2023-02-28T15:37:37;5.50;93.00
59025;DHT22;44806;48.008;13.666;2023-02-28T15:40:23;5.50;93.00
59025;DHT22;44806;48.008;13.666;2023-02-28T15:43:06;5.50;93.40
59025;DHT22;44806;48.008;13.666;2023-02-28T15:45:44;5.40;93.00
59025;DHT22;44806;48.008;13.666;2023-02-28T15:48:21;5.50;93.00
59025;DHT22;44806;48.008;13.666;2023-02-28T15:50:57;5.50;93.30
59025;DHT22;44806;48.008;13.666;2023-02-28T15:53:35;5.50;93.50
59025;DHT22;44806;48.008;13.666;2023-02-28T15:56:22;5.50;93.90
59025;DHT22;44806;48.008;13.666;2023-02-28T15:58:57;5.50;93.50
59025;DHT22;44806;48.008;13.666;2023-02-28T16:01:32;5.50;93.60
59025;DHT22;44806;48.008;13.666;2023-02-28T16:04:01;5.50;93.60
59025;DHT22;44806;48.008;13.666;2023-02-28T16:06:44;5.50;93.80
59025;DHT22;44806;48.008;13.666;2023-02-28T16:09:14;5.40;93.50
59025;DHT22;44806;48.008;13.666;2023-02-28T16:11:54;5.40;93.70
59025;DHT22;44806;48.008;13.666;2023-02-28T16:14:29;5.30;93.90
59025;DHT22;44806;48.008;13.666;2023-02-28T16:17:05;5.30;93.80
59025;DHT22;44806;48.008;13.666;2023-02-28T16:19:39;5.40;93.50
59025;DHT22;44806;48.008;13.666;2023-02-28T16:22:13;5.40;93.80
59025;DHT22;44806;48.008;13.666;2023-02-28T16:24:46;5.30;93.60
59025;DHT22;44806;48.008;13.666;2023-02-28T16:27:28;5.20;93.90
59025;DHT22;44806;48.008;13.666;2023-02-28T16:30:00;5.30;94.40
59025;DHT22;44806;48.008;13.666;2023-02-28T16:32:33;5.20;94.20
59025;DHT22;44806;48.008;13.666;2023-02-28T16:35:18;5.20;94.30
59025;DHT22;44806;48.008;13.666;2023-02-28T16:37:55;5.10;94.20
59025;DHT22;44806;48.008;13.666;2023-02-28T16:40:25;5.10;94.20
59025;DHT22;44806;48.008;13.666;2023-02-28T16:43:00;5.10;94.10
59025;DHT22;44806;48.008;13.666;2023-02-28T16:45:39;5.10;93.90
59025;DHT22;44806;48.008;13.666;2023-02-28T16:48:13;5.10;94.20
59025;DHT22;44806;48.008;13.666;2023-02-28T16:50:42;5.20;94.20
59025;DHT22;44806;48.008;13.666;2023-02-28T16:53:16;5.20;94.30
59025;DHT22;44806;48.008;13.666;2023-02-28T16:55:54;5.20;94.30
59025;DHT22;44806;48.008;13.666;2023-02-28T16:58:32;5.20;94.30
59025;DHT22;44806;48.008;13.666;2023-02-28T17:01:05;5.10;94.10
59025;DHT22;44806;48.008;13.666;2023-02-28T17:03:44;5.10;93.90